sensor_id;sensor_type;location;lat;lon;timestamp;pressure;altitude;pressure_sealevel;temperature;humidity
46714;BME280;32445;51.376;10.874;2024-01-30T00:00:59;100777.44;;;2.86;55.20
46714;BME280;32445;51.376;10.874;2024-01-30T00:05:59;100779.03;;;2.81;55.26
46714;BME280;32445;51.376;10.874;2024-01-30T00:10:59;100778.94;;;2.77;54.96
46714;BME280;32445;51.376;10.874;2024-01-30T00:16:00;100772.88;;;2.74;55.19
46714;BME280;32445;51.376;10.874;2024-01-30T00:21:00;100774.47;;;2.70;55.15
46714;BME280;32445;51.376;10.874;2024-01-30T00:26:00;100768.38;;;2.65;55.22
46714;BME280;32445;51.376;10.874;2024-01-30T00:31:01;100759.75;;;2.63;54.87
46714;BME280;32445;51.376;10.874;2024-01-30T00:36:01;100765.63;;;2.59;55.01
46714;BME280;32445;51.376;10.874;2024-01-30T00:41:02;100751.00;;;2.55;55.01
46714;BME280;32445;51.376;10.874;2024-01-30T00:46:03;100743.19;;;2.50;55.17
46714;BME280;32445;51.376;10.874;2024-01-30T00:51:05;100749.13;;;2.49;54.97
46714;BME280;32445;51.376;10.874;2024-01-30T00:56:05;100743.06;;;2.46;55.10
46714;BME280;32445;51.376;10.874;2024-01-30T01:01:06;100742.13;;;2.42;55.39
46714;BME280;32445;51.376;10.874;2024-01-30T01:06:07;100746.25;;;2.37;55.24
46714;BME280;32445;51.376;10.874;2024-01-30T01:11:08;100742.72;;;2.33;55.12
46714;BME280;32445;51.376;10.874;2024-01-30T01:16:08;100750.31;;;2.29;55.03
46714;BME280;32445;51.376;10.874;2024-01-30T01:21:08;100746.81;;;2.25;55.09
46714;BME280;32445;51.376;10.874;2024-01-30T01:26:09;100741.53;;;2.20;55.08
46714;BME280;32445;51.376;10.874;2024-01-30T01:31:10;100742.25;;;2.16;55.02
46714;BME280;32445;51.376;10.874;2024-01-30T01:36:10;100745.59;;;2.12;55.28
46714;BME280;32445;51.376;10.874;2024-01-30T01:41:10;100743.75;;;2.08;55.15
46714;BME280;32445;51.376;10.874;2024-01-30T01:46:11;100747.06;;;2.04;55.13
46714;BME280;32445;51.376;10.874;2024-01-30T01:51:11;100736.69;;;1.99;55.18
46714;BME280;32445;51.376;10.874;2024-01-30T01:56:12;100732.34;;;1.97;55.17
46714;BME280;32445;51.376;10.874;2024-01-30T02:01:13;100736.44;;;1.92;55.10
46714;BME280;32445;51.376;10.874;2024-01-30T02:06:20;100729.53;;;1.89;55.11
46714;BME280;32445;51.376;10.874;2024-01-30T02:11:24;100731.16;;;1.85;55.10
46714;BME280;32445;51.376;10.874;2024-01-30T02:16:24;100722.44;;;1.79;55.09
46714;BME280;32445;51.376;10.874;2024-01-30T02:21:25;100720.59;;;1.75;55.17
46714;BME280;32445;51.376;10.874;2024-01-30T02:26:26;100719.66;;;1.71;55.15
46714;BME280;32445;51.376;10.874;2024-01-30T02:31:27;100727.25;;;1.68;55.18
46714;BME280;32445;51.376;10.874;2024-01-30T02:36:27;100729.72;;;1.65;55.17
46714;BME280;32445;51.376;10.874;2024-01-30T02:41:27;100709.94;;;1.59;55.32
46714;BME280;32445;51.376;10.874;2024-01-30T02:46:28;100714.94;;;1.56;55.18
46714;BME280;32445;51.376;10.874;2024-01-30T02:51:28;100717.44;;;1.54;55.37
46714;BME280;32445;51.376;10.874;2024-01-30T02:56:28;100705.34;;;1.49;55.42
46714;BME280;32445;51.376;10.874;2024-01-30T03:01:29;100709.63;;;1.50;55.34
46714;BME280;32445;51.376;10.874;2024-01-30T03:06:29;100709.59;;;1.48;55.27
46714;BME280;32445;51.376;10.874;2024-01-30T03:11:30;100701.91;;;1.48;55.24
46714;BME280;32445;51.376;10.874;2024-01-30T03:16:30;100698.38;;;1.45;55.37
46714;BME280;32445;51.376;10.874;2024-01-30T03:21:31;100694.63;;;1.32;55.59
46714;BME280;32445;51.376;10.874;2024-01-30T03:26:31;100693.81;;;1.34;55.56
46714;BME280;32445;51.376;10.874;2024-01-30T03:31:32;100692.25;;;1.38;55.28
46714;BME280;32445;51.376;10.874;2024-01-30T03:36:32;100697.25;;;1.35;55.49
46714;BME280;32445;51.376;10.874;2024-01-30T03:41:34;100698.22;;;1.38;55.43
46714;BME280;32445;51.376;10.874;2024-01-30T03:46:35;100688.09;;;1.43;55.16
46714;BME280;32445;51.376;10.874;2024-01-30T03:51:35;100686.44;;;1.44;55.12
46714;BME280;32445;51.376;10.874;2024-01-30T03:56:35;100675.31;;;1.43;55.21
46714;BME280;32445;51.376;10.874;2024-01-30T04:01:36;100676.16;;;1.42;55.05
46714;BME280;32445;51.376;10.874;2024-01-30T04:06:36;100679.53;;;1.41;55.17
46714;BME280;32445;51.376;10.874;2024-01-30T04:11:37;100665.88;;;1.41;55.12
46714;BME280;32445;51.376;10.874;2024-01-30T04:16:38;100680.38;;;1.42;55.13
46714;BME280;32445;51.376;10.874;2024-01-30T04:21:38;100674.41;;;1.41;54.90
46714;BME280;32445;51.376;10.874;2024-01-30T04:26:38;100676.94;;;1.40;55.10
46714;BME280;32445;51.376;10.874;2024-01-30T04:31:39;100665.75;;;1.37;55.23
46714;BME280;32445;51.376;10.874;2024-01-30T04:36:39;100664.00;;;1.35;55.21
46714;BME280;32445;51.376;10.874;2024-01-30T04:41:39;100663.91;;;1.32;55.25
46714;BME280;32445;51.376;10.874;2024-01-30T04:46:42;100660.47;;;1.31;55.10
46714;BME280;32445;51.376;10.874;2024-01-30T04:51:43;100653.56;;;1.29;55.38
46714;BME280;32445;51.376;10.874;2024-01-30T04:56:43;100658.59;;;1.26;55.33
46714;BME280;32445;51.376;10.874;2024-01-30T05:01:43;100658.47;;;1.21;55.43
46714;BME280;32445;51.376;10.874;2024-01-30T05:06:44;100664.41;;;1.20;55.36
46714;BME280;32445;51.376;10.874;2024-01-30T05:11:44;100661.84;;;1.20;55.46
46714;BME280;32445;51.376;10.874;2024-01-30T05:16:45;100662.69;;;1.19;55.30
46714;BME280;32445;51.376;10.874;2024-01-30T05:21:47;100666.91;;;1.18;55.48
46714;BME280;32445;51.376;10.874;2024-01-30T05:26:47;100661.69;;;1.15;55.55
46714;BME280;32445;51.376;10.874;2024-01-30T05:31:48;100660.84;;;1.15;55.19
46714;BME280;32445;51.376;10.874;2024-01-30T05:36:48;100674.34;;;1.11;55.23
46714;BME280;32445;51.376;10.874;2024-01-30T05:41:49;100670.91;;;1.10;55.24
46714;BME280;32445;51.376;10.874;2024-01-30T05:46:49;100678.50;;;1.07;55.40
46714;BME280;32445;51.376;10.874;2024-01-30T05:51:50;100674.94;;;1.02;55.51
46714;BME280;32445;51.376;10.874;2024-01-30T05:56:50;100667.00;;;0.94;55.60
46714;BME280;32445;51.376;10.874;2024-01-30T06:01:50;100667.78;;;0.92;55.67
46714;BME280;32445;51.376;10.874;2024-01-30T06:06:51;100677.41;;;0.99;55.65
46714;BME280;32445;51.376;10.874;2024-01-30T06:11:51;100668.03;;;0.99;55.60
46714;BME280;32445;51.376;10.874;2024-01-30T06:16:51;100666.25;;;0.97;55.42
46714;BME280;32445;51.376;10.874;2024-01-30T06:21:52;100662.81;;;0.96;55.30
46714;BME280;32445;51.376;10.874;2024-01-30T06:26:52;100663.56;;;0.92;55.52
46714;BME280;32445;51.376;10.874;2024-01-30T06:31:53;100662.66;;;0.92;55.60
46714;BME280;32445;51.376;10.874;2024-01-30T06:36:53;100659.16;;;0.88;55.61
46714;BME280;32445;51.376;10.874;2024-01-30T06:41:53;100658.25;;;0.86;55.36
46714;BME280;32445;51.376;10.874;2024-01-30T06:46:54;100663.19;;;0.81;55.74
46714;BME280;32445;51.376;10.874;2024-01-30T06:51:54;100666.50;;;0.79;55.81
46714;BME280;32445;51.376;10.874;2024-01-30T06:56:54;100665.56;;;0.75;55.71
46714;BME280;32445;51.376;10.874;2024-01-30T07:01:55;100660.41;;;0.74;55.74
46714;BME280;32445;51.376;10.874;2024-01-30T07:06:55;100664.56;;;0.72;55.69
46714;BME280;32445;51.376;10.874;2024-01-30T07:11:56;100670.47;;;0.69;55.75
46714;BME280;32445;51.376;10.874;2024-01-30T07:16:58;100673.84;;;0.68;55.77
46714;BME280;32445;51.376;10.874;2024-01-30T07:21:58;100681.47;;;0.66;55.53
46714;BME280;32445;51.376;10.874;2024-01-30T07:26:59;100678.06;;;0.66;55.66
46714;BME280;32445;51.376;10.874;2024-01-30T07:31:59;100669.50;;;0.65;55.65
46714;BME280;32445;51.376;10.874;2024-01-30T07:37:00;100669.53;;;0.67;55.68
46714;BME280;32445;51.376;10.874;2024-01-30T07:42:00;100670.38;;;0.66;55.43
46714;BME280;32445;51.376;10.874;2024-01-30T07:47:00;100671.28;;;0.68;55.57
46714;BME280;32445;51.376;10.874;2024-01-30T07:52:01;100671.28;;;0.68;55.48
46714;BME280;32445;51.376;10.874;2024-01-30T07:57:01;100670.53;;;0.71;55.45
46714;BME280;32445;51.376;10.874;2024-01-30T08:02:02;100673.22;;;0.75;55.33
46714;BME280;32445;51.376;10.874;2024-01-30T08:07:03;100662.28;;;0.79;55.36
46714;BME280;32445;51.376;10.874;2024-01-30T08:12:04;100664.94;;;0.82;55.31
46714;BME280;32445;51.376;10.874;2024-01-30T08:17:04;100662.53;;;0.87;55.39
46714;BME280;32445;51.376;10.874;2024-01-30T08:22:04;100657.53;;;0.92;55.39
46714;BME280;32445;51.376;10.874;2024-01-30T08:27:05;100654.28;;;0.96;55.48
46714;BME280;32445;51.376;10.874;2024-01-30T08:32:07;100656.88;;;0.97;55.41
46714;BME280;32445;51.376;10.874;2024-01-30T08:37:07;100650.94;;;0.98;55.43
46714;BME280;32445;51.376;10.874;2024-01-30T08:42:07;100647.91;;;1.10;55.50
46714;BME280;32445;51.376;10.874;2024-01-30T08:47:08;100649.78;;;1.16;55.29
46714;BME280;32445;51.376;10.874;2024-01-30T08:52:08;100654.22;;;1.21;55.99
46714;BME280;32445;51.376;10.874;2024-01-30T08:57:09;100643.50;;;1.33;55.57
46714;BME280;32445;51.376;10.874;2024-01-30T09:02:09;100658.34;;;1.45;56.06
46714;BME280;32445;51.376;10.874;2024-01-30T09:07:11;100646.69;;;1.55;55.86
46714;BME280;32445;51.376;10.874;2024-01-30T09:12:13;100645.31;;;1.66;56.00
46714;BME280;32445;51.376;10.874;2024-01-30T09:17:14;100641.44;;;1.81;56.07
46714;BME280;32445;51.376;10.874;2024-01-30T09:22:15;100640.22;;;2.00;56.12
46714;BME280;32445;51.376;10.874;2024-01-30T09:27:15;100650.00;;;2.15;55.85
46714;BME280;32445;51.376;10.874;2024-01-30T09:32:15;100646.22;;;2.32;56.17
46714;BME280;32445;51.376;10.874;2024-01-30T09:37:16;100644.97;;;2.51;55.99
46714;BME280;32445;51.376;10.874;2024-01-30T09:42:27;100640.78;;;2.90;56.63
46714;BME280;32445;51.376;10.874;2024-01-30T09:47:31;100655.00;;;3.15;56.27
46714;BME280;32445;51.376;10.874;2024-01-30T09:52:32;100654.56;;;3.33;56.05
46714;BME280;32445;51.376;10.874;2024-01-30T09:57:34;100656.06;;;3.63;56.06
46714;BME280;32445;51.376;10.874;2024-01-30T10:02:35;100662.75;;;3.99;56.65
46714;BME280;32445;51.376;10.874;2024-01-30T10:07:36;100659.88;;;4.29;56.66
46714;BME280;32445;51.376;10.874;2024-01-30T10:12:39;100658.59;;;4.53;55.95
46714;BME280;32445;51.376;10.874;2024-01-30T10:17:39;100668.47;;;4.79;55.99
46714;BME280;32445;51.376;10.874;2024-01-30T10:22:41;100662.06;;;5.09;56.08
46714;BME280;32445;51.376;10.874;2024-01-30T10:27:44;100659.88;;;5.36;55.86
46714;BME280;32445;51.376;10.874;2024-01-30T10:32:45;100647.41;;;5.69;56.96
46714;BME280;32445;51.376;10.874;2024-01-30T10:37:47;100647.81;;;6.01;56.62
46714;BME280;32445;51.376;10.874;2024-01-30T10:42:49;100660.13;;;6.32;58.64
46714;BME280;32445;51.376;10.874;2024-01-30T10:47:55;100651.75;;;6.56;57.55
46714;BME280;32445;51.376;10.874;2024-01-30T10:52:59;100650.22;;;6.75;57.08
46714;BME280;32445;51.376;10.874;2024-01-30T10:58:00;100646.91;;;6.96;56.60
46714;BME280;32445;51.376;10.874;2024-01-30T11:03:03;100646.22;;;7.19;56.23
46714;BME280;32445;51.376;10.874;2024-01-30T11:08:11;100636.84;;;7.38;56.25
46714;BME280;32445;51.376;10.874;2024-01-30T11:13:13;100634.38;;;7.58;56.05
46714;BME280;32445;51.376;10.874;2024-01-30T11:18:29;100634.41;;;7.75;56.17
46714;BME280;32445;51.376;10.874;2024-01-30T11:23:30;100630.16;;;7.85;56.72
46714;BME280;32445;51.376;10.874;2024-01-30T11:28:33;100628.44;;;7.90;56.88
46714;BME280;32445;51.376;10.874;2024-01-30T11:33:37;100623.28;;;8.02;56.89
46714;BME280;32445;51.376;10.874;2024-01-30T11:38:37;100606.06;;;8.15;57.02
46714;BME280;32445;51.376;10.874;2024-01-30T11:43:41;100607.81;;;8.21;56.74
46714;BME280;32445;51.376;10.874;2024-01-30T11:48:41;100600.94;;;8.27;56.86
46714;BME280;32445;51.376;10.874;2024-01-30T11:53:42;100595.78;;;8.47;56.83
46714;BME280;32445;51.376;10.874;2024-01-30T11:58:43;100580.28;;;8.61;56.73
46714;BME280;32445;51.376;10.874;2024-01-30T12:03:50;100588.88;;;8.70;56.66
46714;BME280;32445;51.376;10.874;2024-01-30T12:09:03;100577.66;;;8.74;56.50
46714;BME280;32445;51.376;10.874;2024-01-30T12:14:04;100573.34;;;8.77;56.64
46714;BME280;32445;51.376;10.874;2024-01-30T12:19:05;100564.69;;;8.91;56.74
46714;BME280;32445;51.376;10.874;2024-01-30T12:24:05;100553.47;;;8.89;56.41
46714;BME280;32445;51.376;10.874;2024-01-30T12:29:07;100556.88;;;9.05;56.78
46714;BME280;32445;51.376;10.874;2024-01-30T12:34:07;100549.09;;;9.08;56.78
46714;BME280;32445;51.376;10.874;2024-01-30T12:39:11;100542.19;;;9.14;56.85
46714;BME280;32445;51.376;10.874;2024-01-30T12:44:13;100543.03;;;9.15;56.62
46714;BME280;32445;51.376;10.874;2024-01-30T12:49:16;100554.22;;;9.25;56.79
46714;BME280;32445;51.376;10.874;2024-01-30T12:54:17;100572.31;;;9.35;56.95
46714;BME280;32445;51.376;10.874;2024-01-30T12:59:17;100578.34;;;9.38;56.50
46714;BME280;32445;51.376;10.874;2024-01-30T13:04:18;100569.72;;;9.32;56.58
46714;BME280;32445;51.376;10.874;2024-01-30T13:09:18;100576.59;;;9.46;56.84
46714;BME280;32445;51.376;10.874;2024-01-30T13:14:19;100567.84;;;9.65;56.68
46714;BME280;32445;51.376;10.874;2024-01-30T13:19:19;100558.34;;;9.69;56.38
46714;BME280;32445;51.376;10.874;2024-01-30T13:24:20;100553.97;;;9.74;56.49
46714;BME280;32445;51.376;10.874;2024-01-30T13:29:23;100546.13;;;9.85;56.91
46714;BME280;32445;51.376;10.874;2024-01-30T13:34:23;100548.69;;;9.91;56.63
46714;BME280;32445;51.376;10.874;2024-01-30T13:39:25;100554.78;;;9.89;56.75
46714;BME280;32445;51.376;10.874;2024-01-30T13:44:25;100561.66;;;9.91;56.95
46714;BME280;32445;51.376;10.874;2024-01-30T13:49:25;100559.94;;;9.87;57.11
46714;BME280;32445;51.376;10.874;2024-01-30T13:54:26;100553.03;;;9.89;56.38
46714;BME280;32445;51.376;10.874;2024-01-30T13:59:26;100548.75;;;9.82;57.09
46714;BME280;32445;51.376;10.874;2024-01-30T14:04:26;100542.66;;;9.87;57.13
46714;BME280;32445;51.376;10.874;2024-01-30T14:09:27;100544.38;;;9.87;57.15
46714;BME280;32445;51.376;10.874;2024-01-30T14:14:28;100547.84;;;9.91;57.16
46714;BME280;32445;51.376;10.874;2024-01-30T14:19:28;100538.38;;;9.83;57.10
46714;BME280;32445;51.376;10.874;2024-01-30T14:24:28;100530.56;;;9.85;57.41
46714;BME280;32445;51.376;10.874;2024-01-30T14:29:29;100542.66;;;9.87;57.29
46714;BME280;32445;51.376;10.874;2024-01-30T14:34:29;100543.53;;;9.85;57.36
46714;BME280;32445;51.376;10.874;2024-01-30T14:39:29;100546.97;;;9.87;56.97
46714;BME280;32445;51.376;10.874;2024-01-30T14:44:30;100543.53;;;9.88;57.22
46714;BME280;32445;51.376;10.874;2024-01-30T14:49:31;100540.09;;;9.84;57.26
46714;BME280;32445;51.376;10.874;2024-01-30T14:54:32;100530.63;;;9.79;57.08
46714;BME280;32445;51.376;10.874;2024-01-30T14:59:32;100541.03;;;9.76;57.38
46714;BME280;32445;51.376;10.874;2024-01-30T15:04:34;100543.59;;;9.77;57.48
46714;BME280;32445;51.376;10.874;2024-01-30T15:09:34;100540.06;;;9.89;57.03
46714;BME280;32445;51.376;10.874;2024-01-30T15:14:35;100537.50;;;9.80;57.34
46714;BME280;32445;51.376;10.874;2024-01-30T15:19:35;100552.19;;;9.85;57.08
46714;BME280;32445;51.376;10.874;2024-01-30T15:24:36;100554.78;;;9.84;56.92
46714;BME280;32445;51.376;10.874;2024-01-30T15:29:36;100566.91;;;9.80;57.17
46714;BME280;32445;51.376;10.874;2024-01-30T15:34:36;100583.41;;;9.72;57.22
46714;BME280;32445;51.376;10.874;2024-01-30T15:39:37;100572.19;;;9.62;57.39
46714;BME280;32445;51.376;10.874;2024-01-30T15:44:37;100572.19;;;9.63;57.30
46714;BME280;32445;51.376;10.874;2024-01-30T15:49:37;100577.38;;;9.63;57.40
46714;BME280;32445;51.376;10.874;2024-01-30T15:54:38;100577.44;;;9.56;57.38
46714;BME280;32445;51.376;10.874;2024-01-30T15:59:38;100582.59;;;9.54;57.20
46714;BME280;32445;51.376;10.874;2024-01-30T16:04:38;100573.13;;;9.48;57.31
46714;BME280;32445;51.376;10.874;2024-01-30T16:09:39;100575.72;;;9.53;57.29
46714;BME280;32445;51.376;10.874;2024-01-30T16:14:40;100572.25;;;9.51;57.21
46714;BME280;32445;51.376;10.874;2024-01-30T16:19:40;100580.03;;;9.48;57.36
46714;BME280;32445;51.376;10.874;2024-01-30T16:24:41;100573.13;;;9.48;57.20
46714;BME280;32445;51.376;10.874;2024-01-30T16:29:41;100588.72;;;9.41;57.08
46714;BME280;32445;51.376;10.874;2024-01-30T16:34:42;100592.19;;;9.32;57.47
46714;BME280;32445;51.376;10.874;2024-01-30T16:39:44;100595.69;;;9.22;57.33
46714;BME280;32445;51.376;10.874;2024-01-30T16:44:45;100606.06;;;9.23;57.54
46714;BME280;32445;51.376;10.874;2024-01-30T16:49:46;100606.06;;;9.15;57.56
46714;BME280;32445;51.376;10.874;2024-01-30T16:54:47;100620.72;;;9.24;57.53
46714;BME280;32445;51.376;10.874;2024-01-30T16:59:49;100620.72;;;9.21;57.45
46714;BME280;32445;51.376;10.874;2024-01-30T17:04:49;100609.53;;;9.14;57.60
46714;BME280;32445;51.376;10.874;2024-01-30T17:09:50;100614.69;;;9.22;57.19
46714;BME280;32445;51.376;10.874;2024-01-30T17:14:50;100620.72;;;9.29;57.23
46714;BME280;32445;51.376;10.874;2024-01-30T17:19:51;100619.84;;;9.24;57.41
46714;BME280;32445;51.376;10.874;2024-01-30T17:24:51;100619.03;;;9.11;57.49
46714;BME280;32445;51.376;10.874;2024-01-30T17:29:51;100636.28;;;9.03;57.67
46714;BME280;32445;51.376;10.874;2024-01-30T17:34:52;100634.59;;;8.97;57.76
46714;BME280;32445;51.376;10.874;2024-01-30T17:39:52;100635.47;;;8.91;58.05
46714;BME280;32445;51.376;10.874;2024-01-30T17:44:53;100650.16;;;8.81;58.08
46714;BME280;32445;51.376;10.874;2024-01-30T17:49:53;100651.84;;;8.79;58.21
46714;BME280;32445;51.376;10.874;2024-01-30T17:54:53;100658.78;;;8.80;58.31
46714;BME280;32445;51.376;10.874;2024-01-30T17:59:54;100668.28;;;8.83;58.10
46714;BME280;32445;51.376;10.874;2024-01-30T18:04:55;100666.53;;;8.83;58.37
46714;BME280;32445;51.376;10.874;2024-01-30T18:09:55;100653.59;;;8.94;58.01
46714;BME280;32445;51.376;10.874;2024-01-30T18:14:56;100662.19;;;8.99;57.98
46714;BME280;32445;51.376;10.874;2024-01-30T18:19:56;100668.25;;;9.06;57.68
46714;BME280;32445;51.376;10.874;2024-01-30T18:24:57;100671.72;;;9.10;57.71
46714;BME280;32445;51.376;10.874;2024-01-30T18:29:57;100673.41;;;9.23;57.46
46714;BME280;32445;51.376;10.874;2024-01-30T18:34:58;100667.34;;;9.32;57.08
46714;BME280;32445;51.376;10.874;2024-01-30T18:39:58;100679.41;;;9.28;57.25
46714;BME280;32445;51.376;10.874;2024-01-30T18:44:58;100676.84;;;9.25;57.33
46714;BME280;32445;51.376;10.874;2024-01-30T18:49:59;100670.81;;;9.11;57.64
46714;BME280;32445;51.376;10.874;2024-01-30T18:55:00;100677.72;;;9.03;57.92
46714;BME280;32445;51.376;10.874;2024-01-30T19:00:00;100680.31;;;9.03;57.86
46714;BME280;32445;51.376;10.874;2024-01-30T19:05:00;100685.53;;;9.04;58.02
46714;BME280;32445;51.376;10.874;2024-01-30T19:10:01;100682.03;;;9.08;57.79
46714;BME280;32445;51.376;10.874;2024-01-30T19:15:02;100669.97;;;9.07;57.92
46714;BME280;32445;51.376;10.874;2024-01-30T19:20:04;100677.75;;;9.09;57.71
46714;BME280;32445;51.376;10.874;2024-01-30T19:25:07;100691.56;;;9.05;58.09
46714;BME280;32445;51.376;10.874;2024-01-30T19:30:08;100688.97;;;9.03;57.97
46714;BME280;32445;51.376;10.874;2024-01-30T19:35:08;100691.59;;;8.97;58.37
46714;BME280;32445;51.376;10.874;2024-01-30T19:40:09;100688.97;;;8.92;58.51
46714;BME280;32445;51.376;10.874;2024-01-30T19:45:10;100696.72;;;8.94;58.57
46714;BME280;32445;51.376;10.874;2024-01-30T19:50:11;100706.25;;;8.90;58.58
46714;BME280;32445;51.376;10.874;2024-01-30T19:55:12;100706.25;;;8.92;58.61
46714;BME280;32445;51.376;10.874;2024-01-30T20:00:13;100704.50;;;8.91;58.61
46714;BME280;32445;51.376;10.874;2024-01-30T20:05:13;100716.59;;;8.90;58.60
46714;BME280;32445;51.376;10.874;2024-01-30T20:10:14;100711.41;;;8.92;58.74
46714;BME280;32445;51.376;10.874;2024-01-30T20:15:14;100716.59;;;8.92;58.79
46714;BME280;32445;51.376;10.874;2024-01-30T20:20:15;100720.91;;;8.85;58.85
46714;BME280;32445;51.376;10.874;2024-01-30T20:25:16;100717.47;;;8.80;58.91
46714;BME280;32445;51.376;10.874;2024-01-30T20:30:17;100720.91;;;8.79;59.05
46714;BME280;32445;51.376;10.874;2024-01-30T20:35:17;100720.91;;;8.79;58.83
46714;BME280;32445;51.376;10.874;2024-01-30T20:40:18;100737.31;;;8.89;58.82
46714;BME280;32445;51.376;10.874;2024-01-30T20:45:19;100739.03;;;8.77;59.14
46714;BME280;32445;51.376;10.874;2024-01-30T20:50:19;100729.53;;;8.75;58.97
46714;BME280;32445;51.376;10.874;2024-01-30T20:55:20;100726.94;;;8.70;59.17
46714;BME280;32445;51.376;10.874;2024-01-30T21:00:22;100732.97;;;8.72;59.00
46714;BME280;32445;51.376;10.874;2024-01-30T21:05:22;100729.53;;;8.73;59.17
46714;BME280;32445;51.376;10.874;2024-01-30T21:10:24;100737.31;;;8.75;59.11
46714;BME280;32445;51.376;10.874;2024-01-30T21:15:25;100741.59;;;8.70;59.32
46714;BME280;32445;51.376;10.874;2024-01-30T21:20:25;100746.78;;;8.65;59.31
46714;BME280;32445;51.376;10.874;2024-01-30T21:25:26;100746.78;;;8.66;59.33
46714;BME280;32445;51.376;10.874;2024-01-30T21:30:27;100753.69;;;8.63;59.48
46714;BME280;32445;51.376;10.874;2024-01-30T21:35:30;100758.84;;;8.60;59.50
46714;BME280;32445;51.376;10.874;2024-01-30T21:40:30;100754.53;;;8.56;59.81
46714;BME280;32445;51.376;10.874;2024-01-30T21:45:30;100758.84;;;8.61;59.56
46714;BME280;32445;51.376;10.874;2024-01-30T21:50:31;100760.56;;;8.58;59.82
46714;BME280;32445;51.376;10.874;2024-01-30T21:55:31;100763.16;;;8.58;59.75
46714;BME280;32445;51.376;10.874;2024-01-30T22:00:32;100769.22;;;8.60;59.80
46714;BME280;32445;51.376;10.874;2024-01-30T22:05:32;100776.13;;;8.64;59.59
46714;BME280;32445;51.376;10.874;2024-01-30T22:10:33;100781.31;;;8.67;59.70
46714;BME280;32445;51.376;10.874;2024-01-30T22:15:33;100789.94;;;8.74;59.60
46714;BME280;32445;51.376;10.874;2024-01-30T22:20:36;100794.25;;;8.76;59.39
46714;BME280;32445;51.376;10.874;2024-01-30T22:25:37;100798.56;;;8.77;59.34
46714;BME280;32445;51.376;10.874;2024-01-30T22:30:37;100796.00;;;8.73;59.77
46714;BME280;32445;51.376;10.874;2024-01-30T22:35:38;100798.56;;;8.73;59.68
46714;BME280;32445;51.376;10.874;2024-01-30T22:40:38;100793.41;;;8.74;59.62
46714;BME280;32445;51.376;10.874;2024-01-30T22:45:39;100801.16;;;8.76;59.47
46714;BME280;32445;51.376;10.874;2024-01-30T22:50:39;100798.56;;;8.79;59.51
46714;BME280;32445;51.376;10.874;2024-01-30T22:55:39;100810.66;;;8.81;59.60
46714;BME280;32445;51.376;10.874;2024-01-30T23:00:40;100811.53;;;8.83;59.40
46714;BME280;32445;51.376;10.874;2024-01-30T23:05:41;100817.59;;;8.89;59.39
46714;BME280;32445;51.376;10.874;2024-01-30T23:10:42;100808.97;;;9.00;59.21
46714;BME280;32445;51.376;10.874;2024-01-30T23:15:42;100819.31;;;9.08;58.78
46714;BME280;32445;51.376;10.874;2024-01-30T23:20:42;100819.31;;;9.00;59.17
46714;BME280;32445;51.376;10.874;2024-01-30T23:25:43;100825.34;;;8.99;58.95
46714;BME280;32445;51.376;10.874;2024-01-30T23:30:43;100837.47;;;8.97;59.05
46714;BME280;32445;51.376;10.874;2024-01-30T23:35:44;100840.91;;;8.89;59.20
46714;BME280;32445;51.376;10.874;2024-01-30T23:40:44;100844.34;;;8.85;59.32
46714;BME280;32445;51.376;10.874;2024-01-30T23:45:45;100846.91;;;8.81;59.66
46714;BME280;32445;51.376;10.874;2024-01-30T23:50:45;100864.16;;;8.76;59.55
46714;BME280;32445;51.376;10.874;2024-01-30T23:55:46;100857.22;;;8.68;59.40
